PWSweather.com
Personal Weather Stations
Station Observations
KCAPORTE1
Orchard Ridge, Porterville, CA 93257

Orchard RidgePorterville, CA 93257

Lat: 36.088946, Lon: -119.057632

Elevation: 423

Station Type: Davis Vantage Vue

http://weather.manyjourneys.com/

Latest ConditionsUpdated 1:20:01 PM PST Saturday, Dec 20, 2014
Currently Today's Max Today's Min Today's Average
Temperature 63.2°F17.3°C 64.1°F17.8°C 45.8°F7.7°C 51.4°F10.8°C
Dew Point 49.9°F9.9°C 50.3°F10.2°C 43.6°F6.4°C 46.1°F7.8°C
Winds Calm Calm 1.2 mph NW1.9 kmh NW - 0.0 mph 0.0 kmh
Wind Gusts 1.2 mph1.9 kmh 2.3 mph3.7 kmh - -
Humidity 62% 94% 59% 83%
Pressure 30.18 in1022.0 mb 30.24 in1024.0 mb 30.16 in1021.3 mb -
Hour Temp Dew Point Humidity Winds Wind Gusts Pressure Precip Precip Rate Daily Precip Total
01:20 PM 63.2°F17.3°C 49.9°F9.9°C 62% Calm Calm 1.2 mph1.9 kmh 30.18 in1022.0 mb 0.00 in0.0 mm 0.00 in/hr0.0 mm/hr 0.00 in0.0 mm
01:10 PM 63.4°F17.4°C 49.7°F9.8°C 61% 1.2 mph NW1.9 kmh NW 2.3 mph3.7 kmh 30.19 in1022.4 mb 0.00 in0.0 mm 0.00 in/hr0.0 mm/hr 0.00 in0.0 mm
01:00 PM 64.1°F17.8°C 49.9°F9.9°C 60% Calm Calm -- 30.19 in1022.4 mb 0.00 in0.0 mm 0.00 in/hr0.0 mm/hr 0.00 in0.0 mm
12:50 PM 64.0°F17.8°C 49.8°F9.9°C 60% Calm Calm -- 30.19 in1022.4 mb 0.00 in0.0 mm 0.00 in/hr0.0 mm/hr 0.00 in0.0 mm
12:40 PM 63.5°F17.5°C 48.9°F9.4°C 59% Calm Calm -- 30.19 in1022.4 mb 0.00 in0.0 mm 0.00 in/hr0.0 mm/hr 0.00 in0.0 mm
12:30 PM 62.9°F17.2°C 49.7°F9.8°C 62% Calm Calm -- 30.19 in1022.4 mb 0.00 in0.0 mm 0.00 in/hr0.0 mm/hr 0.00 in0.0 mm
12:20 PM 62.2°F16.8°C 50.3°F10.2°C 65% Calm Calm -- 30.19 in1022.4 mb 0.00 in0.0 mm 0.00 in/hr0.0 mm/hr 0.00 in0.0 mm
12:10 PM 62.1°F16.7°C 49.8°F9.9°C 64% Calm Calm -- 30.20 in1022.7 mb 0.00 in0.0 mm 0.00 in/hr0.0 mm/hr 0.00 in0.0 mm
12:00 PM 62.1°F16.7°C 49.4°F9.7°C 63% Calm Calm -- 30.21 in1023.0 mb 0.00 in0.0 mm 0.00 in/hr0.0 mm/hr 0.00 in0.0 mm
11:50 AM 62.2°F16.8°C 49.0°F9.4°C 62% Calm Calm -- 30.21 in1023.0 mb 0.00 in0.0 mm 0.00 in/hr0.0 mm/hr 0.00 in0.0 mm
11:40 AM 62.1°F16.7°C 48.9°F9.4°C 62% Calm Calm -- 30.21 in1023.0 mb 0.00 in0.0 mm 0.00 in/hr0.0 mm/hr 0.00 in0.0 mm
11:30 AM 61.7°F16.5°C 48.5°F9.2°C 62% Calm Calm -- 30.21 in1023.0 mb 0.00 in0.0 mm 0.00 in/hr0.0 mm/hr 0.00 in0.0 mm
11:20 AM 61.2°F16.2°C 47.6°F8.7°C 61% Calm Calm -- 30.22 in1023.4 mb 0.00 in0.0 mm 0.00 in/hr0.0 mm/hr 0.00 in0.0 mm
11:10 AM 60.9°F16.1°C 47.4°F8.6°C 61% Calm Calm -- 30.23 in1023.7 mb 0.00 in0.0 mm 0.00 in/hr0.0 mm/hr 0.00 in0.0 mm
11:00 AM 60.6°F15.9°C 47.0°F8.3°C 61% Calm Calm -- 30.24 in1024.0 mb 0.00 in0.0 mm 0.00 in/hr0.0 mm/hr 0.00 in0.0 mm
10:50 AM 60.0°F15.6°C 47.8°F8.8°C 64% Calm Calm -- 30.23 in1023.7 mb 0.00 in0.0 mm 0.00 in/hr0.0 mm/hr 0.00 in0.0 mm
10:40 AM 59.3°F15.2°C 48.7°F9.3°C 68% Calm Calm -- 30.23 in1023.7 mb 0.00 in0.0 mm 0.00 in/hr0.0 mm/hr 0.00 in0.0 mm
10:30 AM 58.3°F14.6°C 48.6°F9.2°C 70% Calm Calm -- 30.23 in1023.7 mb 0.00 in0.0 mm 0.00 in/hr0.0 mm/hr 0.00 in0.0 mm
10:20 AM 57.1°F13.9°C 48.9°F9.4°C 74% Calm Calm -- 30.22 in1023.4 mb 0.00 in0.0 mm 0.00 in/hr0.0 mm/hr 0.00 in0.0 mm
10:10 AM 55.8°F13.2°C 48.0°F8.9°C 75% Calm Calm -- 30.22 in1023.4 mb 0.00 in0.0 mm 0.00 in/hr0.0 mm/hr 0.00 in0.0 mm
10:00 AM 55.3°F12.9°C 47.9°F8.8°C 76% Calm Calm -- 30.22 in1023.4 mb 0.00 in0.0 mm 0.00 in/hr0.0 mm/hr 0.00 in0.0 mm
09:50 AM 54.7°F12.6°C 48.3°F9.1°C 79% Calm Calm -- 30.22 in1023.4 mb 0.00 in0.0 mm 0.00 in/hr0.0 mm/hr 0.00 in0.0 mm
09:40 AM 54.2°F12.3°C 47.8°F8.8°C 79% Calm Calm -- 30.21 in1023.0 mb 0.00 in0.0 mm 0.00 in/hr0.0 mm/hr 0.00 in0.0 mm
09:30 AM 53.6°F12.0°C 47.5°F8.6°C 80% Calm Calm -- 30.22 in1023.4 mb 0.00 in0.0 mm 0.00 in/hr0.0 mm/hr 0.00 in0.0 mm
09:20 AM 52.8°F11.6°C 47.4°F8.6°C 82% Calm Calm -- 30.21 in1023.0 mb 0.00 in0.0 mm 0.00 in/hr0.0 mm/hr 0.00 in0.0 mm
09:10 AM 52.0°F11.1°C 47.6°F8.7°C 85% Calm Calm -- 30.21 in1023.0 mb 0.00 in0.0 mm 0.00 in/hr0.0 mm/hr 0.00 in0.0 mm
09:00 AM 51.2°F10.7°C 47.2°F8.4°C 86% Calm Calm -- 30.21 in1023.0 mb 0.00 in0.0 mm 0.00 in/hr0.0 mm/hr 0.00 in0.0 mm
08:50 AM 50.3°F10.2°C 46.3°F7.9°C 86% Calm Calm -- 30.21 in1023.0 mb 0.00 in0.0 mm 0.00 in/hr0.0 mm/hr 0.00 in0.0 mm
08:40 AM 49.7°F9.8°C 46.6°F8.1°C 89% Calm Calm -- 30.20 in1022.7 mb 0.00 in0.0 mm 0.00 in/hr0.0 mm/hr 0.00 in0.0 mm
08:30 AM 49.1°F9.5°C 46.3°F7.9°C 90% Calm Calm -- 30.20 in1022.7 mb 0.00 in0.0 mm 0.00 in/hr0.0 mm/hr 0.00 in0.0 mm
08:20 AM 48.6°F9.2°C 46.1°F7.8°C 91% Calm Calm -- 30.20 in1022.7 mb 0.00 in0.0 mm 0.00 in/hr0.0 mm/hr 0.00 in0.0 mm
08:10 AM 48.2°F9.0°C 45.7°F7.6°C 91% Calm Calm -- 30.19 in1022.4 mb 0.00 in0.0 mm 0.00 in/hr0.0 mm/hr 0.00 in0.0 mm
08:00 AM 47.8°F8.8°C 45.6°F7.6°C 92% Calm Calm -- 30.19 in1022.4 mb 0.00 in0.0 mm 0.00 in/hr0.0 mm/hr 0.00 in0.0 mm
07:50 AM 47.6°F8.7°C 45.4°F7.4°C 92% Calm Calm -- 30.19 in1022.4 mb 0.00 in0.0 mm 0.00 in/hr0.0 mm/hr 0.00 in0.0 mm
07:40 AM 47.3°F8.5°C 45.4°F7.4°C 93% Calm Calm -- 30.19 in1022.4 mb 0.00 in0.0 mm 0.00 in/hr0.0 mm/hr 0.00 in0.0 mm
07:30 AM 47.2°F8.4°C 45.0°F7.2°C 92% Calm Calm -- 30.19 in1022.4 mb 0.00 in0.0 mm 0.00 in/hr0.0 mm/hr 0.00 in0.0 mm
07:20 AM 47.2°F8.4°C 45.3°F7.4°C 93% Calm Calm -- 30.19 in1022.4 mb 0.00 in0.0 mm 0.00 in/hr0.0 mm/hr 0.00 in0.0 mm
07:10 AM 47.1°F8.4°C 44.9°F7.2°C 92% Calm Calm -- 30.19 in1022.4 mb 0.00 in0.0 mm 0.00 in/hr0.0 mm/hr 0.00 in0.0 mm
07:00 AM 47.3°F8.5°C 44.8°F7.1°C 91% Calm Calm -- 30.19 in1022.4 mb 0.00 in0.0 mm 0.00 in/hr0.0 mm/hr 0.00 in0.0 mm
06:50 AM 47.5°F8.6°C 45.0°F7.2°C 91% Calm Calm -- 30.19 in1022.4 mb 0.00 in0.0 mm 0.00 in/hr0.0 mm/hr 0.00 in0.0 mm
06:40 AM 47.5°F8.6°C 45.0°F7.2°C 91% Calm Calm -- 30.19 in1022.4 mb 0.00 in0.0 mm 0.00 in/hr0.0 mm/hr 0.00 in0.0 mm
06:30 AM 47.6°F8.7°C 45.1°F7.3°C 91% Calm Calm -- 30.18 in1022.0 mb 0.00 in0.0 mm 0.00 in/hr0.0 mm/hr 0.00 in0.0 mm
06:20 AM 47.6°F8.7°C 45.1°F7.3°C 91% Calm Calm -- 30.18 in1022.0 mb 0.00 in0.0 mm 0.00 in/hr0.0 mm/hr 0.00 in0.0 mm
06:10 AM 47.7°F8.7°C 44.9°F7.2°C 90% Calm Calm -- 30.18 in1022.0 mb 0.00 in0.0 mm 0.00 in/hr0.0 mm/hr 0.00 in0.0 mm
06:00 AM 47.7°F8.7°C 44.9°F7.2°C 90% Calm Calm -- 30.17 in1021.7 mb 0.00 in0.0 mm 0.00 in/hr0.0 mm/hr 0.00 in0.0 mm
05:50 AM 47.8°F8.8°C 45.0°F7.2°C 90% Calm Calm -- 30.18 in1022.0 mb 0.00 in0.0 mm 0.00 in/hr0.0 mm/hr 0.00 in0.0 mm
05:40 AM 47.7°F8.7°C 44.9°F7.2°C 90% Calm Calm -- 30.17 in1021.7 mb 0.00 in0.0 mm 0.00 in/hr0.0 mm/hr 0.00 in0.0 mm
05:30 AM 47.9°F8.8°C 45.1°F7.3°C 90% Calm Calm -- 30.16 in1021.3 mb 0.00 in0.0 mm 0.00 in/hr0.0 mm/hr 0.00 in0.0 mm
05:20 AM 48.0°F8.9°C 45.2°F7.3°C 90% Calm Calm -- 30.16 in1021.3 mb 0.00 in0.0 mm 0.00 in/hr0.0 mm/hr 0.00 in0.0 mm
05:10 AM 48.0°F8.9°C 45.2°F7.3°C 90% Calm Calm -- 30.16 in1021.3 mb 0.00 in0.0 mm 0.00 in/hr0.0 mm/hr 0.00 in0.0 mm
05:00 AM 47.8°F8.8°C 45.0°F7.2°C 90% Calm Calm -- 30.16 in1021.3 mb 0.00 in0.0 mm 0.00 in/hr0.0 mm/hr 0.00 in0.0 mm
04:50 AM 47.7°F8.7°C 44.9°F7.2°C 90% Calm Calm -- 30.17 in1021.7 mb 0.00 in0.0 mm 0.00 in/hr0.0 mm/hr 0.00 in0.0 mm
04:40 AM 46.7°F8.2°C 44.5°F6.9°C 92% Calm Calm -- 30.16 in1021.3 mb 0.00 in0.0 mm 0.00 in/hr0.0 mm/hr 0.00 in0.0 mm
04:30 AM 46.3°F7.9°C 44.1°F6.7°C 92% Calm Calm -- 30.16 in1021.3 mb 0.00 in0.0 mm 0.00 in/hr0.0 mm/hr 0.00 in0.0 mm
04:20 AM 46.2°F7.9°C 43.7°F6.5°C 91% Calm Calm -- 30.16 in1021.3 mb 0.00 in0.0 mm 0.00 in/hr0.0 mm/hr 0.00 in0.0 mm
04:10 AM 46.2°F7.9°C 44.0°F6.7°C 92% Calm Calm -- 30.16 in1021.3 mb 0.00 in0.0 mm 0.00 in/hr0.0 mm/hr 0.00 in0.0 mm
04:00 AM 46.0°F7.8°C 44.1°F6.7°C 93% Calm Calm -- 30.16 in1021.3 mb 0.00 in0.0 mm 0.00 in/hr0.0 mm/hr 0.00 in0.0 mm
03:50 AM 45.8°F7.7°C 43.6°F6.4°C 92% Calm Calm -- 30.16 in1021.3 mb 0.00 in0.0 mm 0.00 in/hr0.0 mm/hr 0.00 in0.0 mm
03:40 AM 45.9°F7.7°C 43.7°F6.5°C 92% Calm Calm -- 30.17 in1021.7 mb 0.00 in0.0 mm 0.00 in/hr0.0 mm/hr 0.00 in0.0 mm
03:30 AM 45.9°F7.7°C 44.0°F6.7°C 93% Calm Calm -- 30.17 in1021.7 mb 0.00 in0.0 mm 0.00 in/hr0.0 mm/hr 0.00 in0.0 mm
03:20 AM 45.9°F7.7°C 44.0°F6.7°C 93% Calm Calm -- 30.16 in1021.3 mb 0.00 in0.0 mm 0.00 in/hr0.0 mm/hr 0.00 in0.0 mm
03:10 AM 45.9°F7.7°C 44.3°F6.8°C 94% Calm Calm -- 30.16 in1021.3 mb 0.00 in0.0 mm 0.00 in/hr0.0 mm/hr 0.00 in0.0 mm
03:00 AM 45.8°F7.7°C 43.9°F6.6°C 93% Calm Calm -- 30.16 in1021.3 mb 0.00 in0.0 mm 0.00 in/hr0.0 mm/hr 0.00 in0.0 mm
02:50 AM 45.8°F7.7°C 43.9°F6.6°C 93% Calm Calm -- 30.18 in1022.0 mb 0.00 in0.0 mm 0.00 in/hr0.0 mm/hr 0.00 in0.0 mm
02:40 AM 46.0°F7.8°C 43.8°F6.6°C 92% Calm Calm -- 30.18 in1022.0 mb 0.00 in0.0 mm 0.00 in/hr0.0 mm/hr 0.00 in0.0 mm
02:30 AM 46.3°F7.9°C 44.1°F6.7°C 92% Calm Calm -- 30.19 in1022.4 mb 0.00 in0.0 mm 0.00 in/hr0.0 mm/hr 0.00 in0.0 mm
02:20 AM 46.6°F8.1°C 44.4°F6.9°C 92% Calm Calm -- 30.19 in1022.4 mb 0.00 in0.0 mm 0.00 in/hr0.0 mm/hr 0.00 in0.0 mm
02:10 AM 46.8°F8.2°C 44.6°F7.0°C 92% Calm Calm -- 30.19 in1022.4 mb 0.00 in0.0 mm 0.00 in/hr0.0 mm/hr 0.00 in0.0 mm
02:00 AM 47.0°F8.3°C 44.5°F6.9°C 91% Calm Calm -- 30.19 in1022.4 mb 0.00 in0.0 mm 0.00 in/hr0.0 mm/hr 0.00 in0.0 mm
01:50 AM 47.2°F8.4°C 44.7°F7.1°C 91% Calm Calm -- 30.19 in1022.4 mb 0.00 in0.0 mm 0.00 in/hr0.0 mm/hr 0.00 in0.0 mm
01:40 AM 47.4°F8.6°C 44.9°F7.2°C 91% Calm Calm -- 30.19 in1022.4 mb 0.00 in0.0 mm 0.00 in/hr0.0 mm/hr 0.00 in0.0 mm
01:30 AM 47.7°F8.7°C 45.2°F7.3°C 91% Calm Calm -- 30.18 in1022.0 mb 0.00 in0.0 mm 0.00 in/hr0.0 mm/hr 0.00 in0.0 mm
01:20 AM 47.9°F8.8°C 45.1°F7.3°C 90% Calm Calm -- 30.18 in1022.0 mb 0.00 in0.0 mm 0.00 in/hr0.0 mm/hr 0.00 in0.0 mm
01:10 AM 48.2°F9.0°C 45.4°F7.4°C 90% Calm Calm -- 30.18 in1022.0 mb 0.00 in0.0 mm 0.00 in/hr0.0 mm/hr 0.00 in0.0 mm
01:00 AM 48.3°F9.1°C 45.2°F7.3°C 89% Calm Calm -- 30.18 in1022.0 mb 0.00 in0.0 mm 0.00 in/hr0.0 mm/hr 0.00 in0.0 mm
12:50 AM 48.3°F9.1°C 45.2°F7.3°C 89% Calm Calm -- 30.19 in1022.4 mb 0.00 in0.0 mm 0.00 in/hr0.0 mm/hr 0.00 in0.0 mm
12:40 AM 48.4°F9.1°C 45.0°F7.2°C 88% Calm Calm -- 30.19 in1022.4 mb 0.00 in0.0 mm 0.00 in/hr0.0 mm/hr 0.00 in0.0 mm
12:30 AM 48.6°F9.2°C 45.5°F7.5°C 89% Calm Calm -- 30.19 in1022.4 mb 0.00 in0.0 mm 0.00 in/hr0.0 mm/hr 0.00 in0.0 mm
12:20 AM 48.6°F9.2°C 45.5°F7.5°C 89% Calm Calm -- 30.19 in1022.4 mb 0.00 in0.0 mm 0.00 in/hr0.0 mm/hr 0.00 in0.0 mm
12:10 AM 48.5°F9.2°C 45.7°F7.6°C 90% Calm Calm -- 30.20 in1022.7 mb 0.00 in0.0 mm 0.00 in/hr0.0 mm/hr 0.00 in0.0 mm
12:00 AM 48.5°F9.2°C 45.7°F7.6°C 90% Calm Calm -- 30.21 in1023.0 mb 0.00 in0.0 mm 0.00 in/hr0.0 mm/hr 0.00 in0.0 mm